Time;durP1;ratioP1;P1;durP2;ratioP2;P2;SDS_P1;SDS_P2;PMS_P1;PMS_P2;Temp;Humidity;BMP_temperature;BMP_pressure;BME280_temperature;BME280_humidity;BME280_pressure;Samples;Min_cycle;Max_cycle;Signal;HPM_P1;HPM_P2
2020/12/05 10:14:43;;;;;;;6.15;3.05;;;15.90;47.70;;;;;;4892359;27;1835836;-77
2020/12/05 10:17:10;;;;;;;4.13;2.55;;;19.30;40.10;;;;;;4902485;28;20468;-82
2020/12/05 10:19:36;;;;;;;4.20;2.22;;;19.80;38.40;;;;;;4916805;28;20403;-77
2020/12/05 10:22:02;;;;;;;5.30;2.80;;;20.00;37.80;;;;;;4758928;28;217744;-77
2020/12/05 10:24:28;;;;;;;5.07;2.50;;;20.10;37.20;;;;;;4995919;28;20392;-84
2020/12/05 10:26:54;;;;;;;4.32;2.60;;;20.20;37.00;;;;;;4951886;28;20946;-77
2020/12/05 10:30:35;;;;;;;11.68;2.80;;;20.40;36.80;;;;;;5074931;27;20405;-69
2020/12/05 10:33:01;;;;;;;12.05;2.67;;;20.90;35.90;;;;;;5020670;28;20982;-63
2020/12/05 10:35:27;;;;;;;8.15;2.38;;;21.20;35.10;;;;;;5021437;28;20967;-60
2020/12/05 10:37:53;;;;;;;7.07;2.37;;;21.40;34.70;;;;;;5047795;28;20394;-59
2020/12/05 10:40:18;;;;;;;5.25;2.30;;;21.50;34.40;;;;;;5009172;28;77288;-59
2020/12/05 10:42:44;;;;;;;3.73;2.27;;;21.50;34.20;;;;;;4864372;28;85151;-61
2020/12/05 10:45:10;;;;;;;6.80;2.70;;;21.60;34.30;;;;;;5057537;28;20398;-59
2020/12/05 10:47:35;;;;;;;5.13;2.33;;;21.60;34.20;;;;;;4956789;28;63148;-59
2020/12/05 10:50:01;;;;;;;4.80;2.63;;;21.60;34.10;;;;;;5029694;28;20419;-61
2020/12/05 10:52:27;;;;;;;7.07;2.60;;;21.60;33.90;;;;;;5027549;28;20388;-60
2020/12/05 10:54:52;;;;;;;5.68;2.40;;;21.60;34.00;;;;;;5027926;28;20427;-62
2020/12/05 10:57:18;;;;;;;6.20;2.30;;;21.60;33.80;;;;;;5028392;28;20388;-59
2020/12/05 10:59:43;;;;;;;5.03;2.40;;;21.60;33.80;;;;;;5008332;28;20408;-60
2020/12/05 11:02:09;;;;;;;3.00;2.37;;;21.70;33.90;;;;;;5022684;28;20388;-65
2020/12/05 11:04:35;;;;;;;8.40;2.47;;;21.60;33.80;;;;;;4980093;28;20853;-69
2020/12/05 11:07:01;;;;;;;4.67;2.40;;;21.60;33.80;;;;;;5025439;28;20408;-69
2020/12/05 11:09:27;;;;;;;3.65;2.30;;;21.60;34.20;;;;;;5025501;28;20441;-70
2020/12/05 11:11:53;;;;;;;4.18;2.08;;;21.70;34.10;;;;;;5011464;28;20393;-59
2020/12/05 11:14:19;;;;;;;6.53;2.77;;;21.70;33.90;;;;;;5022565;28;20451;-66
2020/12/05 11:16:45;;;;;;;8.07;3.78;;;21.80;34.10;;;;;;5026831;28;20388;-59
2020/12/05 11:19:10;;;;;;;10.33;3.97;;;21.80;34.00;;;;;;5026477;28;20392;-59
2020/12/05 11:21:36;;;;;;;9.13;3.72;;;21.80;33.80;;;;;;5026315;28;20542;-59
2020/12/05 11:24:02;;;;;;;8.97;4.50;;;21.90;33.80;;;;;;5027970;28;20880;-60
2020/12/05 11:26:27;;;;;;;8.55;4.35;;;22.00;33.70;;;;;;5026660;28;20888;-60
2020/12/05 11:28:53;;;;;;;8.27;4.40;;;22.10;33.70;;;;;;5026306;28;20420;-59
2020/12/05 11:31:18;;;;;;;8.40;4.37;;;22.20;33.50;;;;;;5027075;28;20479;-61
2020/12/05 11:33:45;;;;;;;7.60;4.55;;;22.30;33.50;;;;;;5026312;28;20415;-60
2020/12/05 11:36:11;;;;;;;7.35;4.45;;;22.30;33.40;;;;;;5026468;28;20420;-70
2020/12/05 11:38:37;;;;;;;6.45;4.18;;;22.40;33.20;;;;;;5026343;28;20894;-68
2020/12/05 11:41:03;;;;;;;9.48;4.55;;;22.40;33.30;;;;;;4975005;28;20394;-60
2020/12/05 11:43:29;;;;;;;8.10;4.53;;;22.50;33.30;;;;;;5039713;28;20391;-61
2020/12/05 11:45:55;;;;;;;8.33;4.43;;;22.50;33.20;;;;;;5026042;28;20469;-59
2020/12/05 11:48:21;;;;;;;9.77;4.35;;;22.60;33.10;;;;;;5032672;28;20474;-69
2020/12/05 11:50:47;;;;;;;9.85;4.70;;;22.60;33.40;;;;;;5032477;28;21021;-61
2020/12/05 11:53:12;;;;;;;9.57;4.60;;;22.70;33.20;;;;;;5032679;28;20398;-60
2020/12/05 11:55:38;;;;;;;9.40;4.82;;;22.80;33.20;;;;;;5032388;28;20403;-59
2020/12/05 11:58:05;;;;;;;11.30;5.40;;;22.80;33.10;;;;;;5025866;28;20405;-70
2020/12/05 12:00:32;;;;;;;11.20;6.97;;;22.90;33.00;;;;;;5032102;28;20402;-70
2020/12/05 12:02:58;;;;;;;9.43;6.07;;;23.00;33.10;;;;;;5031961;28;21102;-59
2020/12/05 12:05:24;;;;;;;11.30;5.75;;;23.00;33.00;;;;;;5025794;28;20413;-59
2020/12/05 12:07:50;;;;;;;9.32;5.45;;;23.00;33.00;;;;;;5032244;28;20395;-60
2020/12/05 12:10:17;;;;;;;10.15;5.13;;;23.10;33.00;;;;;;5032138;28;20448;-59
2020/12/05 12:12:43;;;;;;;7.30;5.20;;;23.10;33.70;;;;;;5023827;28;20401;-60
2020/12/05 12:15:08;;;;;;;8.00;4.72;;;23.10;32.90;;;;;;5031539;28;20402;-60
2020/12/05 12:17:34;;;;;;;8.63;4.60;;;23.20;33.20;;;;;;5031962;28;20403;-69
2020/12/05 12:20:00;;;;;;;11.50;4.78;;;23.20;33.20;;;;;;5035872;28;20391;-61
2020/12/05 12:22:26;;;;;;;7.77;4.40;;;23.20;33.20;;;;;;5029146;28;20825;-62
2020/12/05 12:24:52;;;;;;;9.63;4.38;;;23.30;33.50;;;;;;5031892;28;20392;-65
2020/12/05 12:27:18;;;;;;;9.95;4.63;;;23.30;33.50;;;;;;5029246;28;20441;-70
2020/12/05 12:29:44;;;;;;;12.55;4.30;;;23.40;33.40;;;;;;5029234;28;20511;-61
2020/12/05 12:32:09;;;;;;;7.03;4.00;;;23.50;33.10;;;;;;5032096;28;20474;-61
2020/12/05 12:34:35;;;;;;;10.10;4.37;;;23.50;32.80;;;;;;5029111;28;20405;-61
2020/12/05 12:37:03;;;;;;;9.40;4.10;;;23.60;32.80;;;;;;5031793;28;20474;-69
2020/12/05 12:39:30;;;;;;;10.85;4.10;;;23.60;32.70;;;;;;5029164;28;20418;-71
2020/12/05 12:41:56;;;;;;;6.50;3.60;;;23.60;32.50;;;;;;5031524;28;20383;-61
2020/12/05 12:44:22;;;;;;;6.57;3.63;;;23.70;32.60;;;;;;5031945;28;20736;-71
2020/12/05 12:46:56;;;;;;;6.37;3.87;;;23.70;32.40;;;;;;5031555;28;20571;-65
2020/12/05 12:49:22;;;;;;;5.47;3.47;;;23.70;32.30;;;;;;5032017;28;20459;-60
2020/12/05 12:51:48;;;;;;;5.65;3.30;;;23.80;32.30;;;;;;5030953;28;20455;-61
2020/12/05 12:54:13;;;;;;;5.00;3.33;;;23.90;32.40;;;;;;5032007;28;20939;-62
2020/12/05 12:56:40;;;;;;;4.70;3.00;;;23.90;32.20;;;;;;5030854;28;20962;-61
2020/12/05 12:59:06;;;;;;;5.63;3.10;;;23.90;32.10;;;;;;5030173;28;20410;-63
2020/12/05 13:01:32;;;;;;;3.78;3.00;;;24.00;32.00;;;;;;5031730;28;20387;-61
2020/12/05 13:03:58;;;;;;;4.18;2.83;;;24.10;32.00;;;;;;5031661;28;20395;-62
2020/12/05 13:06:23;;;;;;;4.45;3.10;;;24.10;32.00;;;;;;4964427;28;20413;-71
2020/12/05 13:08:49;;;;;;;7.37;3.20;;;24.10;31.70;;;;;;5036276;28;20433;-62
2020/12/05 13:11:16;;;;;;;5.40;3.10;;;24.10;31.80;;;;;;5030673;28;20494;-72
2020/12/05 13:13:42;;;;;;;5.65;2.80;;;24.10;31.60;;;;;;5030707;28;20398;-62
2020/12/05 13:16:07;;;;;;;5.15;3.03;;;24.20;31.50;;;;;;5031092;28;20399;-61
2020/12/05 13:18:33;;;;;;;5.40;2.95;;;24.20;31.50;;;;;;5030855;28;20383;-61
2020/12/05 13:20:59;;;;;;;4.50;2.73;;;24.20;31.40;;;;;;5029747;28;20399;-61
2020/12/05 13:23:24;;;;;;;4.60;3.10;;;24.30;31.50;;;;;;5031526;28;20406;-62
2020/12/05 13:25:50;;;;;;;3.30;2.70;;;24.20;31.50;;;;;;5032345;28;20474;-61
2020/12/05 13:28:16;;;;;;;4.67;2.63;;;24.30;31.40;;;;;;5032006;28;20398;-61
2020/12/05 13:30:42;;;;;;;5.95;2.78;;;24.30;31.20;;;;;;5032023;28;20394;-61
2020/12/05 13:33:08;;;;;;;4.53;2.60;;;24.30;31.10;;;;;;5031293;28;20392;-61
2020/12/05 13:35:35;;;;;;;4.28;2.58;;;24.30;31.10;;;;;;5032079;28;20395;-70
2020/12/05 13:38:01;;;;;;;3.13;2.40;;;24.30;31.00;;;;;;5031712;28;20383;-61
2020/12/05 13:40:26;;;;;;;3.38;2.40;;;24.30;31.10;;;;;;5031528;28;20403;-61
2020/12/05 13:42:52;;;;;;;3.13;2.30;;;24.40;31.10;;;;;;5029887;28;20501;-61
2020/12/05 13:45:18;;;;;;;3.60;2.50;;;24.50;31.10;;;;;;5029816;28;20744;-61
2020/12/05 13:47:43;;;;;;;3.13;2.30;;;24.50;31.20;;;;;;5031034;28;20418;-61
2020/12/05 13:50:10;;;;;;;4.10;2.40;;;24.70;31.00;;;;;;5031682;28;20427;-66
2020/12/05 13:52:36;;;;;;;3.90;2.40;;;24.80;30.80;;;;;;5029474;28;20406;-71
2020/12/05 13:55:03;;;;;;;3.28;2.10;;;24.80;30.70;;;;;;5030568;28;20391;-61
2020/12/05 13:57:28;;;;;;;4.43;2.30;;;24.80;30.80;;;;;;5029603;28;20403;-61
2020/12/05 13:59:54;;;;;;;3.50;2.10;;;24.70;30.70;;;;;;5031502;28;20429;-61
2020/12/05 14:02:19;;;;;;;3.83;1.88;;;24.60;30.80;;;;;;5031273;28;20387;-61
2020/12/05 14:04:45;;;;;;;4.00;1.97;;;24.50;30.80;;;;;;5031179;28;20403;-61
2020/12/05 14:07:11;;;;;;;4.10;2.10;;;24.40;31.00;;;;;;5031222;28;20402;-67
2020/12/05 14:09:36;;;;;;;3.08;2.00;;;24.40;30.90;;;;;;5030747;28;20434;-61
2020/12/05 14:12:02;;;;;;;4.47;2.10;;;24.30;30.80;;;;;;5031540;28;20391;-61
2020/12/05 14:14:28;;;;;;;3.58;2.10;;;24.20;30.70;;;;;;5031904;28;20395;-61
2020/12/05 14:16:54;;;;;;;9.57;2.67;;;24.10;31.00;;;;;;4997276;28;20549;-66
2020/12/05 14:19:20;;;;;;;8.25;2.10;;;24.10;31.40;;;;;;5030972;28;20490;-61
2020/12/05 14:21:46;;;;;;;5.20;2.08;;;24.00;31.80;;;;;;5030542;28;20879;-70
2020/12/05 14:24:13;;;;;;;4.68;1.98;;;24.00;31.90;;;;;;5029203;28;20403;-61
2020/12/05 14:26:38;;;;;;;3.40;1.70;;;24.00;32.10;;;;;;5027527;28;20478;-61
2020/12/05 14:29:04;;;;;;;3.77;1.93;;;23.90;32.10;;;;;;5028049;28;20550;-70
2020/12/05 14:31:30;;;;;;;3.55;1.95;;;23.80;32.00;;;;;;5029090;28;20434;-61
2020/12/05 14:33:56;;;;;;;5.07;2.20;;;23.80;32.10;;;;;;5028588;28;20861;-60
2020/12/05 14:36:24;;;;;;;2.90;1.70;;;23.70;32.20;;;;;;5028769;28;20407;-69
2020/12/05 14:38:51;;;;;;;2.72;1.80;;;23.70;32.20;;;;;;5027950;28;20399;-61
2020/12/05 14:41:19;;;;;;;4.10;1.70;;;23.60;32.30;;;;;;5029108;28;20391;-61
2020/12/05 14:43:46;;;;;;;5.00;1.60;;;23.60;32.20;;;;;;5029150;28;20395;-61
2020/12/05 14:46:13;;;;;;;4.00;1.80;;;23.60;32.30;;;;;;5028561;28;20400;-60
2020/12/05 14:48:38;;;;;;;4.53;1.75;;;23.50;32.30;;;;;;5028633;28;20426;-61
2020/12/05 14:51:05;;;;;;;3.07;1.77;;;23.50;32.40;;;;;;5028672;28;20391;-61
2020/12/05 14:53:32;;;;;;;2.92;1.60;;;23.50;32.40;;;;;;5028066;28;20411;-61
2020/12/05 14:56:02;;;;;;;2.45;1.70;;;23.40;32.50;;;;;;5028456;28;20394;-61
2020/12/05 14:58:29;;;;;;;3.83;1.58;;;23.30;32.50;;;;;;5028898;28;20410;-61
2020/12/05 15:00:58;;;;;;;3.15;1.80;;;23.30;32.50;;;;;;5028828;28;20391;-60
2020/12/05 15:03:26;;;;;;;3.15;1.90;;;23.30;32.40;;;;;;4998741;28;20772;-66
2020/12/05 15:05:51;;;;;;;4.72;2.20;;;23.30;32.60;;;;;;5008164;28;20866;-60
2020/12/05 15:08:17;;;;;;;3.85;2.05;;;23.30;32.50;;;;;;5035281;28;20946;-60
2020/12/05 15:10:43;;;;;;;4.40;2.00;;;23.30;32.40;;;;;;5028960;28;20391;-60
2020/12/05 15:13:09;;;;;;;3.40;2.30;;;23.20;32.10;;;;;;5030109;28;20391;-61
2020/12/05 15:15:34;;;;;;;5.10;2.70;;;23.20;32.30;;;;;;5031106;28;20879;-60
2020/12/05 15:18:00;;;;;;;3.90;2.88;;;23.20;32.20;;;;;;5033301;28;20889;-60
2020/12/05 15:20:26;;;;;;;4.97;2.77;;;23.10;32.10;;;;;;5033781;28;20479;-60
2020/12/05 15:22:51;;;;;;;5.10;3.30;;;23.00;32.20;;;;;;5031681;28;21025;-60
2020/12/05 15:25:17;;;;;;;4.97;3.03;;;23.00;31.90;;;;;;5028643;28;20461;-60
2020/12/05 15:27:44;;;;;;;6.20;3.50;;;23.10;32.00;;;;;;5033935;28;20395;-65
2020/12/05 15:30:09;;;;;;;5.88;3.35;;;23.00;32.60;;;;;;5032364;28;20423;-61
2020/12/05 15:32:35;;;;;;;4.53;3.33;;;22.90;32.40;;;;;;5033468;28;20909;-62
2020/12/05 15:35:01;;;;;;;5.50;3.45;;;22.90;31.80;;;;;;5033541;28;20395;-60
2020/12/05 15:37:27;;;;;;;7.07;3.50;;;23.00;31.70;;;;;;5031037;28;20414;-63
2020/12/05 15:39:53;;;;;;;6.43;3.73;;;23.00;31.60;;;;;;5033067;28;20906;-62
2020/12/05 15:42:19;;;;;;;4.80;3.42;;;22.90;31.40;;;;;;5033026;28;20395;-62
2020/12/05 15:44:47;;;;;;;4.13;3.30;;;22.90;31.30;;;;;;5032397;28;20395;-72
2020/12/05 15:47:12;;;;;;;3.85;3.20;;;22.90;31.30;;;;;;5033211;28;20858;-62
2020/12/05 15:49:38;;;;;;;4.10;3.20;;;22.90;31.30;;;;;;5033158;28;20476;-62
2020/12/05 15:52:04;;;;;;;3.88;3.15;;;22.90;31.30;;;;;;5033502;28;20383;-62
2020/12/05 15:54:31;;;;;;;4.40;3.45;;;22.90;31.20;;;;;;5033664;28;20490;-61
2020/12/05 15:56:56;;;;;;;4.30;3.40;;;22.90;31.20;;;;;;5033263;28;20390;-61
2020/12/05 15:59:22;;;;;;;4.30;3.30;;;22.90;31.20;;;;;;5033324;28;20400;-61
2020/12/05 16:01:52;;;;;;;4.18;3.15;;;22.80;31.20;;;;;;5032944;28;20395;-61
2020/12/05 16:04:18;;;;;;;3.83;3.30;;;22.80;31.20;;;;;;5033524;28;20857;-62
2020/12/05 16:06:51;;;;;;;3.93;2.93;;;22.80;31.20;;;;;;5033179;28;20423;-66
2020/12/05 16:09:19;;;;;;;3.30;3.00;;;22.80;31.30;;;;;;5030085;28;20423;-68
2020/12/05 16:11:45;;;;;;;3.33;2.97;;;22.80;31.30;;;;;;5033412;28;20872;-62
2020/12/05 16:14:12;;;;;;;3.72;2.75;;;22.70;31.40;;;;;;5032771;28;20395;-61
2020/12/05 16:16:38;;;;;;;3.47;3.00;;;22.70;31.30;;;;;;5033032;28;20399;-61
2020/12/05 16:19:04;;;;;;;3.42;2.88;;;22.70;31.20;;;;;;5032695;28;20414;-63
2020/12/05 16:21:29;;;;;;;3.63;3.10;;;22.60;31.50;;;;;;5032596;28;20918;-65
2020/12/05 16:23:55;;;;;;;3.63;2.70;;;22.60;31.60;;;;;;5033242;28;20437;-72
2020/12/05 16:26:21;;;;;;;3.47;2.70;;;22.60;31.50;;;;;;5031949;28;20395;-62
2020/12/05 16:28:47;;;;;;;3.10;2.73;;;22.60;31.50;;;;;;5031425;28;20910;-71
2020/12/05 16:31:21;;;;;;;3.03;2.53;;;22.60;31.60;;;;;;5031353;28;20395;-61
2020/12/05 16:33:47;;;;;;;2.97;2.67;;;22.60;31.40;;;;;;5032376;28;20901;-62
2020/12/05 16:36:13;;;;;;;3.33;2.70;;;22.60;31.40;;;;;;5032260;28;20410;-62
2020/12/05 16:38:39;;;;;;;3.50;2.80;;;22.60;31.50;;;;;;5031276;28;20490;-62
2020/12/05 16:41:05;;;;;;;3.43;2.60;;;22.60;32.10;;;;;;5031169;28;20527;-62
2020/12/05 16:43:31;;;;;;;2.92;2.60;;;22.60;31.60;;;;;;5031147;28;20395;-60
2020/12/05 16:45:56;;;;;;;3.60;2.53;;;22.60;31.60;;;;;;5031412;28;20445;-70
2020/12/05 16:48:22;;;;;;;4.30;2.60;;;22.50;31.50;;;;;;5031332;28;20410;-61
2020/12/05 16:50:48;;;;;;;3.33;2.92;;;22.50;31.60;;;;;;5031255;28;20395;-61
2020/12/05 16:53:13;;;;;;;2.90;2.60;;;22.50;31.50;;;;;;5030887;28;20399;-60
2020/12/05 16:55:39;;;;;;;3.80;2.60;;;22.50;31.60;;;;;;5030502;28;20399;-61
2020/12/05 16:58:06;;;;;;;3.70;2.73;;;22.50;32.10;;;;;;5030465;28;20905;-65
2020/12/05 17:00:32;;;;;;;3.33;2.75;;;22.40;31.50;;;;;;5032080;28;20878;-70
2020/12/05 17:02:57;;;;;;;3.40;2.90;;;22.50;31.60;;;;;;5032371;28;20395;-61
2020/12/05 17:05:25;;;;;;;3.30;2.77;;;22.40;31.60;;;;;;5030448;28;20406;-62
2020/12/05 17:07:51;;;;;;;3.97;2.90;;;22.40;31.60;;;;;;5029673;28;20415;-61
2020/12/05 17:10:21;;;;;;;3.90;3.30;;;22.40;31.60;;;;;;5031096;28;20775;-60
2020/12/05 17:12:49;;;;;;;4.25;3.53;;;22.40;31.60;;;;;;5030255;28;20875;-61
2020/12/05 17:15:16;;;;;;;4.00;3.60;;;22.40;31.50;;;;;;4987949;28;20453;-60
2020/12/05 17:17:41;;;;;;;4.03;3.60;;;22.30;31.70;;;;;;5030879;28;20461;-61
2020/12/05 17:20:07;;;;;;;5.88;3.72;;;22.30;31.70;;;;;;5030999;28;20391;-61
2020/12/05 17:22:32;;;;;;;5.87;3.23;;;22.30;32.00;;;;;;5030913;28;20393;-61
2020/12/05 17:24:58;;;;;;;5.10;3.45;;;22.30;31.90;;;;;;5027694;28;20440;-61
2020/12/05 17:27:27;;;;;;;5.50;3.77;;;22.30;31.90;;;;;;5029778;28;20395;-61
2020/12/05 17:29:57;;;;;;;4.80;3.43;;;22.40;31.90;;;;;;5030525;28;20496;-61
2020/12/05 17:32:23;;;;;;;4.20;3.70;;;22.30;31.80;;;;;;5030883;28;20431;-61
2020/12/05 17:34:50;;;;;;;4.13;3.53;;;22.40;31.80;;;;;;5030572;28;20402;-61
2020/12/05 17:37:19;;;;;;;4.20;3.75;;;22.30;31.80;;;;;;5027125;28;20442;-61
2020/12/05 17:39:49;;;;;;;4.00;3.60;;;22.30;31.80;;;;;;5029441;28;20815;-61
2020/12/05 17:42:15;;;;;;;5.20;3.60;;;22.30;31.80;;;;;;5030020;28;20454;-61
2020/12/05 17:44:43;;;;;;;4.45;3.75;;;22.30;31.80;;;;;;5030410;28;20399;-61
2020/12/05 17:47:13;;;;;;;4.28;3.60;;;22.30;31.80;;;;;;5030166;28;20379;-61
2020/12/05 17:49:46;;;;;;;4.73;4.00;;;22.30;31.80;;;;;;5030708;28;20481;-61
2020/12/05 17:52:12;;;;;;;4.30;3.67;;;22.20;31.80;;;;;;5028112;28;20402;-61
2020/12/05 17:54:38;;;;;;;4.73;3.80;;;22.20;31.80;;;;;;5030352;28;20906;-61
2020/12/05 17:57:05;;;;;;;4.07;3.67;;;22.20;31.80;;;;;;5029850;28;20387;-61
2020/12/05 17:59:32;;;;;;;4.72;3.70;;;22.30;31.80;;;;;;5029911;28;20402;-61
2020/12/05 18:01:59;;;;;;;4.75;3.65;;;22.20;31.80;;;;;;5030547;28;20387;-60
2020/12/05 18:04:25;;;;;;;4.13;3.72;;;22.30;31.80;;;;;;5030303;28;20445;-61
2020/12/05 18:06:52;;;;;;;4.20;3.80;;;22.30;31.80;;;;;;5027075;28;20431;-61
2020/12/05 18:09:18;;;;;;;5.82;3.88;;;22.20;31.70;;;;;;5029799;28;20959;-61
2020/12/05 18:11:48;;;;;;;4.95;4.10;;;22.20;31.80;;;;;;5029977;28;20395;-61
2020/12/05 18:14:14;;;;;;;4.30;3.90;;;22.20;31.80;;;;;;5030299;28;20406;-61
2020/12/05 18:16:40;;;;;;;4.57;4.17;;;22.20;31.80;;;;;;5030067;28;20847;-60
2020/12/05 18:19:05;;;;;;;4.63;3.93;;;22.20;31.80;;;;;;5029784;28;20491;-61
2020/12/05 18:21:31;;;;;;;4.60;4.03;;;22.20;31.90;;;;;;5029875;28;20873;-60
2020/12/05 18:23:57;;;;;;;5.10;4.60;;;22.20;31.80;;;;;;5030051;28;20399;-59
2020/12/05 18:26:22;;;;;;;4.70;4.13;;;22.10;31.70;;;;;;5028870;28;20407;-60
2020/12/05 18:28:48;;;;;;;5.13;4.40;;;22.10;31.80;;;;;;5029699;28;20446;-60
2020/12/05 18:31:14;;;;;;;6.93;4.78;;;22.10;31.80;;;;;;5029037;28;20407;-60
2020/12/05 18:33:42;;;;;;;8.87;5.27;;;22.10;32.10;;;;;;5030349;28;20832;-66
2020/12/05 18:36:14;;;;;;;7.30;5.45;;;22.00;32.20;;;;;;5030741;28;20417;-61
2020/12/05 18:38:39;;;;;;;13.77;5.22;;;21.90;32.20;;;;;;5028648;28;20413;-60
2020/12/05 18:41:06;;;;;;;6.67;4.87;;;22.00;32.30;;;;;;5030302;28;20406;-69
2020/12/05 18:43:34;;;;;;;6.43;4.90;;;22.00;32.30;;;;;;5030543;28;20470;-59
2020/12/05 18:45:59;;;;;;;6.63;5.00;;;21.90;32.10;;;;;;5030926;28;20474;-59
2020/12/05 18:48:26;;;;;;;14.70;5.10;;;21.80;32.60;;;;;;5029377;28;20493;-59
2020/12/05 18:50:52;;;;;;;8.05;4.78;;;21.90;32.90;;;;;;5031942;28;20482;-60
2020/12/05 18:53:18;;;;;;;8.10;5.32;;;21.90;33.10;;;;;;5034258;28;20417;-58
2020/12/05 18:55:43;;;;;;;6.88;4.85;;;21.90;34.30;;;;;;5036397;28;20411;-59
2020/12/05 18:58:09;;;;;;;8.73;5.33;;;21.90;33.80;;;;;;5034579;28;20402;-61
2020/12/05 19:00:35;;;;;;;6.30;5.28;;;21.90;33.30;;;;;;5032959;28;20402;-59
2020/12/05 19:03:00;;;;;;;17.13;6.10;;;21.90;35.00;;;;;;5033715;28;20427;-59
2020/12/05 19:05:26;;;;;;;9.40;5.65;;;21.90;35.30;;;;;;5033024;28;20759;-59
2020/12/05 19:07:52;;;;;;;12.63;5.63;;;22.00;36.00;;;;;;5033018;28;20397;-59
2020/12/05 19:10:17;;;;;;;8.20;6.10;;;22.00;38.10;;;;;;5032655;28;20419;-59
2020/12/05 19:12:43;;;;;;;10.50;6.10;;;22.10;37.50;;;;;;5033484;28;20410;-60
2020/12/05 19:15:09;;;;;;;8.85;5.75;;;22.10;37.50;;;;;;5032880;28;20468;-59
2020/12/05 19:17:34;;;;;;;9.77;5.80;;;22.20;37.60;;;;;;5031102;28;20767;-59
2020/12/05 19:20:00;;;;;;;11.75;5.80;;;22.30;37.90;;;;;;5033796;28;20402;-59
2020/12/05 19:22:25;;;;;;;15.40;5.87;;;22.40;41.20;;;;;;5034469;28;20452;-59
2020/12/05 19:24:51;;;;;;;10.73;5.60;;;22.50;42.50;;;;;;5034641;28;20391;-59
2020/12/05 19:27:17;;;;;;;7.75;5.18;;;22.70;42.30;;;;;;5033429;28;20399;-59
2020/12/05 19:29:42;;;;;;;12.50;5.50;;;22.80;42.80;;;;;;5034051;28;20476;-59
2020/12/05 19:32:08;;;;;;;13.20;5.60;;;22.90;41.90;;;;;;5033309;28;20398;-59
2020/12/05 19:34:35;;;;;;;12.90;5.45;;;23.00;41.80;;;;;;5032470;28;20410;-59
2020/12/05 19:37:01;;;;;;;11.05;5.50;;;22.90;41.90;;;;;;5033967;28;20405;-58
2020/12/05 19:39:27;;;;;;;9.33;5.07;;;23.00;42.60;;;;;;5032979;28;20494;-60
2020/12/05 19:41:53;;;;;;;10.20;5.00;;;22.90;41.70;;;;;;5034309;28;20389;-59
2020/12/05 19:44:18;;;;;;;8.43;5.07;;;22.90;40.30;;;;;;5033929;28;20399;-59
2020/12/05 19:46:48;;;;;;;11.15;5.13;;;22.80;40.50;;;;;;5033733;28;20449;-69
2020/12/05 19:49:15;;;;;;;15.55;5.40;;;22.80;41.20;;;;;;5033591;28;20399;-59
2020/12/05 19:51:40;;;;;;;7.10;5.00;;;22.80;40.90;;;;;;5033374;28;20446;-59
2020/12/05 19:54:06;;;;;;;11.80;5.15;;;22.90;40.60;;;;;;5032823;28;20390;-59
2020/12/05 19:56:33;;;;;;;11.60;5.30;;;22.80;40.20;;;;;;5032259;28;20744;-59
2020/12/05 19:58:59;;;;;;;8.48;4.80;;;22.80;40.60;;;;;;5033615;28;20901;-59
2020/12/05 20:01:24;;;;;;;11.43;4.80;;;22.90;40.20;;;;;;5032404;28;20395;-67
2020/12/05 20:03:50;;;;;;;10.60;5.43;;;22.90;40.10;;;;;;5033206;28;20410;-59
2020/12/05 20:06:18;;;;;;;9.02;4.82;;;22.90;40.10;;;;;;5033396;28;20767;-59
2020/12/05 20:08:43;;;;;;;8.77;4.93;;;22.90;39.50;;;;;;5059772;28;20441;-60
2020/12/05 20:11:10;;;;;;;9.07;5.10;;;22.90;39.50;;;;;;5028529;28;20980;-59
2020/12/05 20:13:36;;;;;;;7.65;4.38;;;22.80;39.10;;;;;;5030574;28;20399;-59
2020/12/05 20:16:02;;;;;;;8.20;4.60;;;22.70;38.40;;;;;;5030537;28;20935;-59
2020/12/05 20:18:27;;;;;;;7.80;4.53;;;22.60;38.20;;;;;;5030157;28;20415;-60
2020/12/05 20:20:53;;;;;;;6.57;4.90;;;22.60;37.90;;;;;;5032074;28;20413;-59
2020/12/05 20:23:19;;;;;;;6.77;4.97;;;22.60;37.40;;;;;;5030503;28;20407;-60
2020/12/05 20:25:45;;;;;;;6.45;4.65;;;22.50;36.70;;;;;;5032218;28;20403;-59
2020/12/05 20:28:11;;;;;;;7.28;4.90;;;22.50;36.40;;;;;;5031541;28;20403;-59
2020/12/05 20:30:36;;;;;;;6.27;4.87;;;22.50;36.10;;;;;;5030937;28;20427;-59
2020/12/05 20:33:02;;;;;;;6.03;4.70;;;22.50;35.90;;;;;;5031720;28;20729;-59
2020/12/05 20:35:28;;;;;;;6.53;5.10;;;22.50;35.70;;;;;;5032145;28;20387;-60
2020/12/05 20:37:54;;;;;;;7.90;5.20;;;22.50;36.00;;;;;;5032750;28;20399;-59
2020/12/05 20:40:20;;;;;;;7.93;5.00;;;22.40;35.70;;;;;;5032401;28;20391;-59
2020/12/05 20:42:45;;;;;;;5.80;4.90;;;22.40;35.60;;;;;;5030651;28;20399;-59
2020/12/05 20:45:13;;;;;;;7.17;4.77;;;22.40;35.50;;;;;;5031923;28;20751;-60
2020/12/05 20:47:39;;;;;;;8.20;4.78;;;22.40;35.20;;;;;;5031731;28;20545;-60
2020/12/05 20:50:06;;;;;;;7.20;5.30;;;22.40;35.50;;;;;;5031699;28;21030;-59
2020/12/05 20:52:34;;;;;;;5.70;4.80;;;22.40;35.10;;;;;;5030082;28;20418;-59
2020/12/05 20:55:01;;;;;;;5.28;4.78;;;22.30;34.90;;;;;;5030838;28;20779;-59
2020/12/05 20:57:27;;;;;;;6.32;4.68;;;22.30;35.00;;;;;;5030375;28;20779;-59
2020/12/05 20:59:52;;;;;;;6.70;4.90;;;22.40;35.00;;;;;;5032207;28;20403;-59
2020/12/05 21:02:18;;;;;;;5.68;4.95;;;22.30;35.00;;;;;;5030470;28;20409;-60
2020/12/05 21:04:43;;;;;;;9.17;5.27;;;22.40;34.60;;;;;;5032063;28;20407;-59
2020/12/05 21:07:09;;;;;;;7.25;5.20;;;22.40;36.10;;;;;;5031892;28;20433;-60
2020/12/05 21:09:35;;;;;;;6.77;5.17;;;22.30;36.90;;;;;;5029314;28;20419;-60
2020/12/05 21:12:01;;;;;;;7.78;5.50;;;22.30;34.90;;;;;;5031769;28;20403;-58
2020/12/05 21:14:26;;;;;;;7.23;5.10;;;22.20;34.60;;;;;;5030562;28;20992;-59
2020/12/05 21:16:52;;;;;;;7.57;5.22;;;22.20;34.40;;;;;;5031791;28;20403;-60
2020/12/05 21:19:18;;;;;;;8.55;5.60;;;22.20;34.50;;;;;;5031382;28;20891;-59
2020/12/05 21:21:43;;;;;;;8.50;5.83;;;22.20;34.40;;;;;;5031870;28;20475;-60
2020/12/05 21:24:09;;;;;;;7.80;5.70;;;22.20;34.30;;;;;;5031755;28;20383;-59
2020/12/05 21:26:35;;;;;;;8.02;5.60;;;22.20;34.30;;;;;;5031680;28;20391;-59
2020/12/05 21:29:01;;;;;;;8.23;5.50;;;22.10;34.40;;;;;;5031579;28;20464;-60
2020/12/05 21:31:28;;;;;;;6.85;5.28;;;22.20;34.60;;;;;;5030906;28;20415;-59
2020/12/05 21:33:54;;;;;;;6.60;5.55;;;22.20;34.60;;;;;;5032169;28;20390;-59
2020/12/05 21:36:24;;;;;;;8.23;5.45;;;22.10;34.50;;;;;;5029422;28;20442;-59
2020/12/05 21:38:51;;;;;;;7.70;5.57;;;22.10;34.80;;;;;;5031125;28;20791;-59
2020/12/05 21:41:17;;;;;;;7.25;5.47;;;22.20;34.90;;;;;;5030653;28;20825;-59
2020/12/05 21:43:43;;;;;;;8.70;5.70;;;22.10;34.60;;;;;;5031029;28;20530;-59
2020/12/05 21:46:09;;;;;;;7.80;5.78;;;22.10;34.40;;;;;;5031547;28;20445;-59
2020/12/05 21:48:36;;;;;;;8.48;5.93;;;22.20;34.80;;;;;;5029923;28;20407;-59
2020/12/05 21:51:02;;;;;;;6.00;5.40;;;22.10;34.80;;;;;;5030645;28;20952;-59
2020/12/05 21:53:27;;;;;;;6.68;5.70;;;22.10;34.80;;;;;;5030544;28;20736;-59
2020/12/05 21:55:53;;;;;;;6.30;5.33;;;22.10;34.70;;;;;;5030360;28;20460;-59
2020/12/05 21:58:19;;;;;;;6.35;5.43;;;22.10;34.30;;;;;;5029603;28;20873;-59
2020/12/05 22:00:45;;;;;;;8.77;5.20;;;22.20;34.40;;;;;;5030986;28;20760;-59
2020/12/05 22:03:11;;;;;;;8.25;5.70;;;22.10;34.60;;;;;;5029752;28;20760;-59
2020/12/05 22:05:37;;;;;;;7.53;5.60;;;22.10;34.60;;;;;;5030150;28;20399;-59
2020/12/05 22:08:02;;;;;;;5.50;4.90;;;22.10;34.20;;;;;;5030367;28;20403;-60
2020/12/05 22:10:28;;;;;;;6.10;5.30;;;22.00;34.00;;;;;;5031662;28;20423;-60
2020/12/05 22:12:54;;;;;;;6.35;5.25;;;22.00;33.90;;;;;;5030937;28;20409;-71
2020/12/05 22:15:20;;;;;;;6.90;5.55;;;22.00;33.80;;;;;;5030570;28;21002;-60
2020/12/05 22:17:46;;;;;;;6.23;5.30;;;22.00;33.80;;;;;;5030719;28;20736;-60
2020/12/05 22:20:12;;;;;;;5.88;5.28;;;22.10;33.70;;;;;;5029756;28;20403;-59
2020/12/05 22:22:39;;;;;;;5.70;5.07;;;22.00;33.50;;;;;;5030559;28;20391;-60
2020/12/05 22:25:09;;;;;;;7.10;5.32;;;22.00;33.50;;;;;;5031002;28;20395;-60
2020/12/05 22:27:36;;;;;;;5.35;4.82;;;22.00;33.60;;;;;;5030351;28;20403;-59
2020/12/05 22:30:04;;;;;;;5.65;5.15;;;21.90;33.50;;;;;;5030468;28;20562;-59
2020/12/05 22:32:29;;;;;;;5.97;5.10;;;21.90;33.50;;;;;;5030070;28;20407;-60
2020/12/05 22:34:55;;;;;;;5.83;4.97;;;21.90;33.40;;;;;;5030714;28;20414;-59
2020/12/05 22:37:21;;;;;;;6.50;5.10;;;21.90;33.40;;;;;;5029286;28;20801;-60
2020/12/05 22:39:48;;;;;;;7.75;5.22;;;21.90;33.50;;;;;;5031119;28;20893;-59
2020/12/05 22:42:13;;;;;;;6.32;5.35;;;21.90;33.70;;;;;;5030808;28;20387;-59
2020/12/05 22:44:39;;;;;;;8.00;5.53;;;21.80;33.60;;;;;;5030472;28;20407;-59
2020/12/05 22:47:05;;;;;;;8.10;5.72;;;21.90;33.80;;;;;;5031046;28;20389;-60
2020/12/05 22:49:32;;;;;;;7.53;5.47;;;21.90;33.90;;;;;;5030216;28;20525;-63
2020/12/05 22:52:09;;;;;;;6.35;5.43;;;21.90;34.00;;;;;;5031094;28;20433;-59
2020/12/05 22:54:36;;;;;;;6.00;5.07;;;21.80;33.90;;;;;;5030858;28;20387;-59